createdAt,value
2022-08-26T03:55:32.127Z,100.00
2022-08-26T03:58:35.202Z,100.00
2022-08-26T04:01:37.423Z,100.00
2022-08-26T04:04:40.410Z,100.00
2022-08-26T04:07:45.338Z,100.00
2022-08-26T04:10:47.858Z,100.00
2022-08-26T04:13:53.317Z,100.00
2022-08-26T04:16:56.377Z,100.00
2022-08-26T04:19:58.523Z,100.00
2022-08-26T04:23:01.496Z,100.00
2022-08-26T04:26:04.525Z,100.00
2022-08-26T04:29:11.035Z,100.00
2022-08-26T04:32:13.141Z,100.00
2022-08-26T04:35:15.534Z,100.00
2022-08-26T04:38:19.910Z,100.00
2022-08-26T04:41:23.677Z,100.00
2022-08-26T04:44:29.463Z,100.00
2022-08-26T04:47:32.494Z,100.00
2022-08-26T04:50:35.081Z,100.00
2022-08-26T04:53:37.632Z,100.00
2022-08-26T04:56:43.119Z,100.00
2022-08-26T04:59:45.560Z,100.00
2022-08-26T05:02:48.246Z,100.00
2022-08-26T05:05:54.358Z,100.00
2022-08-26T05:08:56.598Z,100.00
2022-08-26T05:12:00.843Z,100.00
2022-08-26T05:15:03.090Z,100.00
2022-08-26T05:18:06.973Z,100.00
2022-08-26T05:21:16.834Z,100.00
2022-08-26T05:24:19.214Z,100.00
2022-08-26T05:27:21.728Z,100.00
2022-08-26T05:30:24.173Z,100.00
2022-08-26T05:33:26.325Z,100.00
2022-08-26T05:36:31.177Z,100.00
2022-08-26T05:39:33.792Z,98.96
2022-08-26T05:42:36.721Z,97.17
2022-08-26T05:45:45.889Z,98.08
2022-08-26T05:48:48.798Z,97.08
2022-08-26T05:51:50.884Z,95.77
2022-08-26T05:54:54.230Z,91.97
2022-08-26T05:57:56.305Z,84.65
2022-08-26T06:01:03.602Z,81.59
2022-08-26T06:04:07.426Z,79.50
2022-08-26T06:07:09.948Z,77.85
2022-08-26T06:10:31.697Z,78.43
2022-08-26T06:13:35.046Z,75.72
2022-08-26T06:16:40.878Z,76.56
2022-08-26T06:19:43.212Z,73.72
2022-08-26T06:23:04.021Z,73.31
2022-08-26T06:26:06.600Z,72.54
2022-08-26T06:29:16.373Z,72.46
2022-08-26T06:32:27.230Z,71.04
2022-08-26T06:35:29.550Z,71.46
2022-08-26T06:38:31.697Z,70.86
2022-08-26T06:41:36.630Z,71.20
2022-08-26T06:44:41.568Z,69.23
2022-08-26T06:47:47.107Z,70.79
2022-08-26T06:51:01.738Z,70.00
2022-08-26T06:54:05.930Z,69.87
2022-08-26T06:57:09.614Z,62.28
2022-08-26T07:00:12.920Z,62.42
2022-08-26T07:03:16.091Z,57.29
2022-08-26T07:06:19.594Z,57.28
2022-08-26T07:09:24.175Z,56.79
2022-08-26T07:12:26.758Z,57.34
2022-08-26T07:15:31.202Z,57.40
2022-08-26T07:18:36.012Z,55.04
2022-08-26T07:21:41.454Z,54.19
2022-08-26T07:24:43.893Z,54.86
2022-08-26T07:27:46.401Z,56.10
2022-08-26T07:30:56.734Z,56.65
2022-08-26T07:34:00.549Z,54.58
2022-08-26T07:37:08.746Z,55.87
2022-08-26T07:40:12.121Z,54.99
2022-08-26T07:43:15.816Z,56.45
2022-08-26T07:46:20.785Z,54.91
2022-08-26T07:49:31.138Z,53.84
2022-08-26T07:52:33.311Z,53.07
2022-08-26T07:55:37.381Z,53.96
2022-08-26T07:58:40.244Z,51.02
2022-08-26T08:01:45.167Z,51.66
2022-08-26T08:04:48.632Z,52.04
2022-08-26T08:07:53.683Z,51.79
2022-08-26T08:11:15.987Z,52.34
2022-08-26T08:14:22.018Z,53.24
2022-08-26T08:17:24.787Z,51.09
2022-08-26T08:20:28.326Z,51.31
2022-08-26T08:23:31.492Z,51.49
2022-08-26T08:26:35.171Z,51.81
2022-08-26T08:29:37.515Z,51.76
2022-08-26T08:32:39.634Z,49.76
2022-08-26T08:35:42.644Z,48.30
2022-08-26T08:38:45.741Z,48.07
2022-08-26T08:41:50.935Z,47.78
2022-08-26T08:44:57.174Z,47.94
2022-08-26T08:48:06.867Z,46.86
2022-08-26T08:51:48.140Z,48.22
2022-08-26T08:54:50.491Z,48.52
2022-08-26T08:58:19.155Z,44.65
2022-08-26T09:01:37.636Z,43.96
2022-08-26T09:04:59.353Z,42.48
2022-08-26T09:08:06.753Z,44.26
2022-08-26T09:11:14.798Z,43.39
2022-08-26T09:14:17.640Z,43.49
2022-08-26T09:17:38.796Z,42.00
2022-08-26T09:20:53.384Z,42.37
2022-08-26T09:23:56.630Z,43.92
2022-08-26T09:26:59.440Z,43.56
2022-08-26T09:30:01.565Z,44.40
2022-08-26T09:33:11.114Z,45.24
2022-08-26T09:36:24.810Z,42.48
2022-08-26T09:39:37.795Z,41.19
2022-08-26T09:42:40.097Z,41.17
2022-08-26T09:45:50.070Z,42.32
2022-08-26T09:48:53.334Z,43.20
2022-08-26T09:52:15.002Z,41.55
2022-08-26T09:55:23.706Z,41.84
2022-08-26T09:58:41.887Z,40.50
2022-08-26T10:01:45.032Z,38.94
2022-08-26T10:04:54.155Z,40.42
2022-08-26T10:07:57.816Z,41.08
2022-08-26T10:11:06.138Z,41.54
2022-08-26T10:14:19.061Z,41.15
2022-08-26T10:17:34.120Z,40.85
2022-08-26T10:20:41.675Z,39.98
2022-08-26T10:24:03.498Z,40.51
2022-08-26T10:27:51.348Z,40.14
2022-08-26T10:31:16.649Z,38.71
2022-08-26T10:34:22.241Z,39.10
2022-08-26T10:37:37.177Z,38.32
2022-08-26T10:40:55.097Z,37.57
2022-08-26T10:44:02.666Z,36.41
2022-08-26T10:47:16.334Z,37.60
2022-08-26T10:50:24.777Z,36.42
2022-08-26T10:53:46.629Z,36.85
2022-08-26T10:57:13.446Z,38.23
2022-08-26T11:00:40.256Z,37.15
2022-08-26T11:04:00.479Z,34.57
2022-08-26T11:07:40.849Z,34.97
2022-08-26T11:10:43.081Z,35.30
2022-08-26T11:14:01.164Z,34.83
2022-08-26T11:17:03.465Z,35.51
2022-08-26T11:20:09.175Z,35.13
2022-08-26T11:23:28.197Z,34.38
2022-08-26T11:26:55.033Z,31.79
2022-08-26T11:30:06.960Z,30.92
2022-08-26T11:33:48.887Z,30.23
2022-08-26T11:36:58.139Z,28.72
2022-08-26T11:40:04.619Z,29.58
2022-08-26T11:43:23.443Z,32.44
2022-08-26T11:46:28.901Z,29.80
2022-08-26T11:49:32.869Z,29.99
2022-08-26T11:52:35.841Z,30.16
2022-08-26T11:55:43.373Z,30.19
2022-08-26T11:58:47.766Z,30.79
2022-08-26T12:01:53.370Z,31.11
2022-08-26T12:04:56.393Z,31.01
2022-08-26T12:08:07.301Z,31.43
2022-08-26T12:11:31.140Z,30.35
2022-08-26T12:14:33.958Z,29.84
2022-08-26T12:17:37.063Z,29.43
2022-08-26T12:20:54.257Z,29.66
2022-08-26T12:23:59.303Z,31.17
2022-08-26T12:27:23.653Z,29.55
2022-08-26T12:30:26.420Z,30.80
2022-08-26T12:33:29.245Z,31.48
2022-08-26T12:36:42.874Z,30.65
2022-08-26T12:39:47.868Z,30.50
2022-08-26T12:42:50.389Z,30.38
2022-08-26T12:46:02.042Z,30.92
2022-08-26T12:49:04.462Z,31.89
2022-08-26T12:52:09.640Z,31.91
2022-08-26T12:55:21.850Z,29.60
2022-08-26T12:58:38.824Z,30.16
2022-08-26T13:01:44.253Z,30.17
2022-08-26T13:04:46.464Z,29.82
2022-08-26T13:08:08.634Z,30.33
2022-08-26T13:11:12.797Z,29.81
2022-08-26T13:14:23.827Z,30.36
2022-08-26T13:17:28.354Z,29.31
2022-08-26T13:20:35.275Z,29.58
2022-08-26T13:23:41.917Z,29.70
2022-08-26T13:26:46.969Z,29.90
2022-08-26T13:29:51.087Z,28.71
2022-08-26T13:32:59.642Z,29.81
2022-08-26T13:36:01.803Z,32.04
2022-08-26T13:39:06.066Z,29.52
2022-08-26T13:42:08.933Z,30.79
2022-08-26T13:45:11.571Z,30.09
2022-08-26T13:48:13.627Z,30.03
2022-08-26T13:51:18.484Z,30.47
2022-08-26T13:54:21.183Z,29.63
2022-08-26T13:57:24.643Z,29.52
2022-08-26T14:00:26.758Z,30.75
2022-08-26T14:03:29.146Z,31.44
2022-08-26T14:06:31.586Z,30.27
2022-08-26T14:09:38.226Z,30.41
2022-08-26T14:12:40.513Z,30.71
2022-08-26T14:15:42.849Z,30.41
2022-08-26T14:18:50.027Z,29.52
2022-08-26T14:21:53.040Z,29.28
2022-08-26T14:24:55.197Z,29.65
2022-08-26T14:27:57.534Z,30.17
2022-08-26T14:31:00.113Z,30.16
2022-08-26T14:34:05.603Z,31.12
2022-08-26T14:37:09.216Z,32.38
2022-08-26T14:40:14.311Z,30.79
2022-08-26T14:43:16.396Z,30.75
2022-08-26T14:46:18.805Z,30.42
2022-08-26T14:49:22.382Z,29.34
2022-08-26T14:52:25.408Z,30.08
2022-08-26T14:55:29.452Z,31.64
2022-08-26T14:58:35.571Z,31.76
2022-08-26T15:01:37.745Z,30.97
2022-08-26T15:04:41.146Z,30.25
2022-08-26T15:07:43.263Z,30.74
2022-08-26T15:10:45.603Z,30.61
2022-08-26T15:13:48.232Z,28.91
2022-08-26T15:16:55.796Z,30.17
